Time;durP1;ratioP1;P1;durP2;ratioP2;P2;SDS_P1;SDS_P2;PMS_P1;PMS_P2;Temp;Humidity;BMP_temperature;BMP_pressure;BME280_temperature;BME280_humidity;BME280_pressure;Samples;Min_cycle;Max_cycle;Signal;HPM_P1;HPM_P2
2022/03/27 14:49:22;;;;;;;33.15;16.58;;;;;;;;;;5018185;28;20406;-54
2022/03/27 14:51:47;;;;;;;32.40;15.80;;;23.10;51.80;;;;;;5021059;28;61976;-64
2022/03/27 15:00:24;;;;;;;33.35;17.50;;;28.30;25.70;;;;;;5707863;23;20056;-77
2022/03/27 15:02:51;;;;;;;36.53;17.92;;;27.30;26.30;;;;;;4940717;28;20058;-80
2022/03/27 15:05:18;;;;;;;39.20;16.95;;;24.10;28.90;;;;;;4978525;28;20058;-81
2022/03/27 15:10:49;;;;;;;31.08;17.05;;;24.40;29.30;;;;;;4977508;28;19922;-87
2022/03/27 15:13:37;;;;;;;32.28;17.33;;;24.40;28.60;;;;;;4988535;28;20054;-87
2022/03/27 15:19:49;;;;;;;30.60;16.42;;;24.10;28.90;;;;;;4944697;29;19934;-86
2022/03/27 15:32:51;;;;;;;36.50;19.38;;;23.60;29.90;;;;;;4919151;29;20047;-83
2022/03/27 15:36:01;;;;;;;32.15;16.60;;;23.60;29.60;;;;;;4904800;29;20048;-85
2022/03/27 15:38:28;;;;;;;31.73;17.20;;;23.50;30.20;;;;;;4916316;29;20061;-82
2022/03/27 15:40:58;;;;;;;33.50;16.65;;;23.50;29.80;;;;;;4916292;29;20072;-85
2022/03/27 15:44:19;;;;;;;34.13;16.67;;;23.50;30.10;;;;;;4916798;29;20099;-85
2022/03/27 15:46:51;;;;;;;33.42;18.40;;;23.40;30.20;;;;;;4853841;29;20048;-82
2022/03/27 15:52:50;;;;;;;31.20;16.60;;;23.40;29.90;;;;;;4864088;29;20045;-76
2022/03/27 15:55:17;;;;;;;28.45;16.67;;;23.40;29.80;;;;;;4867779;29;20583;-76
2022/03/27 15:57:44;;;;;;;34.95;16.63;;;23.30;29.70;;;;;;4869518;29;20057;-76
2022/03/27 16:00:13;;;;;;;27.80;15.88;;;23.30;29.90;;;;;;4868774;29;20059;-77
2022/03/27 16:02:40;;;;;;;32.58;16.33;;;23.30;29.90;;;;;;4903831;29;20095;-77
2022/03/27 16:05:09;;;;;;;33.38;17.15;;;23.30;29.90;;;;;;4924469;29;20054;-76
2022/03/27 16:07:36;;;;;;;33.33;17.15;;;23.20;29.70;;;;;;4919539;29;20088;-76
2022/03/27 16:10:05;;;;;;;28.73;16.00;;;23.20;29.70;;;;;;4912336;29;20083;-76
2022/03/27 16:12:32;;;;;;;27.08;15.27;;;23.20;29.80;;;;;;4910822;29;20155;-76
2022/03/27 16:14:59;;;;;;;31.83;16.45;;;23.20;29.90;;;;;;4912927;29;20075;-76
2022/03/27 16:17:27;;;;;;;33.58;15.85;;;23.20;29.80;;;;;;4911615;29;20056;-76
2022/03/27 16:19:54;;;;;;;28.88;16.13;;;23.20;29.70;;;;;;4913381;29;20060;-76
2022/03/27 16:22:21;;;;;;;30.50;15.95;;;23.20;29.50;;;;;;4911525;29;20112;-74
2022/03/27 16:24:48;;;;;;;33.80;16.05;;;23.20;29.60;;;;;;4910285;29;20131;-75
2022/03/27 16:27:17;;;;;;;29.02;14.93;;;23.20;29.20;;;;;;4912221;29;20056;-75
2022/03/27 16:29:44;;;;;;;31.42;15.43;;;23.30;29.40;;;;;;4911378;29;20410;-75
2022/03/27 16:32:11;;;;;;;27.48;14.25;;;23.30;29.50;;;;;;4910910;29;20056;-76
2022/03/27 16:34:38;;;;;;;27.77;14.88;;;23.30;29.20;;;;;;4913213;29;20139;-75
2022/03/27 16:37:06;;;;;;;29.02;14.93;;;23.40;29.10;;;;;;4912405;29;20476;-75
2022/03/27 16:39:33;;;;;;;27.38;15.60;;;23.40;29.20;;;;;;4910972;29;20324;-75
2022/03/27 16:42:00;;;;;;;27.98;15.32;;;23.40;29.00;;;;;;4910546;29;20087;-75
2022/03/27 16:44:28;;;;;;;32.03;13.60;;;23.40;29.00;;;;;;4911709;29;20465;-75
2022/03/27 16:46:55;;;;;;;28.35;14.50;;;23.40;29.10;;;;;;4911574;29;20108;-75
2022/03/27 16:49:23;;;;;;;28.88;13.75;;;23.50;28.90;;;;;;4912360;29;20114;-75
2022/03/27 16:51:50;;;;;;;28.63;14.55;;;23.80;28.70;;;;;;4911933;29;20080;-75
2022/03/27 16:54:18;;;;;;;27.17;13.55;;;24.50;27.90;;;;;;4911808;29;20064;-75
2022/03/27 16:56:45;;;;;;;22.92;13.98;;;25.20;27.20;;;;;;4911901;29;20048;-75
2022/03/27 16:59:13;;;;;;;24.15;14.15;;;26.00;26.40;;;;;;4910814;29;20060;-76
2022/03/27 17:01:42;;;;;;;24.35;13.23;;;26.70;25.80;;;;;;4911057;29;20059;-75
2022/03/27 17:04:09;;;;;;;24.30;13.55;;;27.30;25.50;;;;;;4910449;29;20052;-75
2022/03/27 17:06:36;;;;;;;26.45;13.07;;;27.80;24.90;;;;;;4911882;29;20040;-75
2022/03/27 17:09:06;;;;;;;29.30;12.50;;;28.20;24.70;;;;;;4929326;28;20743;-75
2022/03/27 17:11:33;;;;;;;17.92;12.07;;;28.50;24.20;;;;;;4953670;28;20067;-74
2022/03/27 17:14:00;;;;;;;18.75;11.43;;;28.60;23.30;;;;;;4951865;28;20063;-75
2022/03/27 17:16:27;;;;;;;20.77;11.07;;;28.80;23.30;;;;;;4951710;28;20138;-75
2022/03/27 17:18:55;;;;;;;26.45;11.55;;;28.90;22.90;;;;;;4951089;28;20057;-74
2022/03/27 17:21:22;;;;;;;16.02;10.43;;;29.00;22.90;;;;;;4950735;28;20081;-74
2022/03/27 17:23:49;;;;;;;19.25;10.80;;;28.90;23.00;;;;;;4949786;28;20102;-75
2022/03/27 17:26:17;;;;;;;20.50;11.20;;;28.40;23.10;;;;;;4947314;28;20463;-74
2022/03/27 17:28:44;;;;;;;17.52;10.52;;;27.70;23.20;;;;;;4949613;28;20057;-75
2022/03/27 17:31:11;;;;;;;17.25;10.43;;;27.00;23.40;;;;;;4949506;28;20059;-74
2022/03/27 17:33:38;;;;;;;22.75;9.88;;;26.40;24.40;;;;;;4951153;28;20058;-75
2022/03/27 17:36:07;;;;;;;16.02;9.35;;;25.80;25.80;;;;;;4950817;28;20043;-74
2022/03/27 17:38:34;;;;;;;17.27;9.63;;;25.10;26.00;;;;;;4951829;28;20075;-74
2022/03/27 17:41:00;;;;;;;19.60;9.90;;;24.50;26.80;;;;;;4952114;28;20059;-74
2022/03/27 17:43:29;;;;;;;14.95;9.25;;;24.00;27.40;;;;;;4948539;28;20145;-74
2022/03/27 17:45:56;;;;;;;17.60;9.10;;;23.60;28.30;;;;;;4950533;28;20137;-74
2022/03/27 17:48:23;;;;;;;18.52;8.32;;;23.20;29.10;;;;;;4950568;28;20055;-74
2022/03/27 17:50:49;;;;;;;18.05;9.50;;;22.80;30.00;;;;;;4950806;28;20043;-74
2022/03/27 17:53:18;;;;;;;18.77;7.90;;;22.50;30.10;;;;;;4950326;28;20134;-74
2022/03/27 17:55:45;;;;;;;19.25;8.95;;;22.30;30.90;;;;;;4950296;28;20054;-75
2022/03/27 17:58:12;;;;;;;16.70;8.88;;;22.00;32.00;;;;;;4949383;28;20132;-74
2022/03/27 18:00:39;;;;;;;24.17;11.73;;;21.80;31.80;;;;;;4950462;28;20047;-74
2022/03/27 18:03:06;;;;;;;17.27;9.23;;;21.60;32.40;;;;;;4950391;28;20070;-74
2022/03/27 18:05:33;;;;;;;19.92;8.80;;;21.40;32.50;;;;;;4951376;28;20379;-74
2022/03/27 18:08:00;;;;;;;18.08;8.60;;;21.10;32.30;;;;;;4950362;28;20483;-74
2022/03/27 18:10:29;;;;;;;16.20;8.73;;;20.90;32.80;;;;;;4949126;28;20067;-74
2022/03/27 18:12:56;;;;;;;16.80;8.32;;;20.70;33.50;;;;;;4948924;28;20078;-74
2022/03/27 18:15:22;;;;;;;19.98;8.93;;;20.50;33.80;;;;;;4948842;28;20051;-75
2022/03/27 18:17:49;;;;;;;17.02;8.55;;;20.40;34.20;;;;;;4949148;28;20051;-73
2022/03/27 18:20:16;;;;;;;18.25;8.63;;;20.30;34.00;;;;;;4949632;28;20047;-73
2022/03/27 18:22:43;;;;;;;21.35;10.00;;;20.20;34.00;;;;;;4949147;28;20142;-74
2022/03/27 18:25:10;;;;;;;25.67;10.00;;;20.00;33.40;;;;;;4946301;28;20122;-74
2022/03/27 18:27:41;;;;;;;24.05;11.50;;;19.90;31.40;;;;;;4944043;28;20054;-75
2022/03/27 18:30:10;;;;;;;23.77;9.80;;;19.70;32.30;;;;;;4946742;28;20142;-75
2022/03/27 18:32:37;;;;;;;15.13;8.90;;;19.60;31.40;;;;;;4956905;28;20733;-74
2022/03/27 18:35:04;;;;;;;17.65;8.32;;;19.50;33.40;;;;;;4951127;28;20119;-75
2022/03/27 18:37:31;;;;;;;21.75;9.43;;;19.50;34.50;;;;;;4950527;28;20055;-75
2022/03/27 18:39:58;;;;;;;20.35;8.60;;;19.40;35.00;;;;;;4949060;28;20055;-75
2022/03/27 18:42:25;;;;;;;22.05;9.52;;;19.40;35.60;;;;;;4948267;28;20802;-74
2022/03/27 18:44:53;;;;;;;17.05;9.10;;;19.30;34.20;;;;;;4947095;28;20055;-74
2022/03/27 18:47:21;;;;;;;25.52;9.80;;;19.20;34.30;;;;;;4949446;28;20125;-74
2022/03/27 18:49:48;;;;;;;17.42;8.82;;;19.10;32.10;;;;;;4949744;28;20051;-74
2022/03/27 18:52:20;;;;;;;19.42;8.95;;;19.10;33.50;;;;;;4947984;28;20055;-75
2022/03/27 18:54:47;;;;;;;16.08;8.95;;;19.10;34.70;;;;;;4946531;28;20089;-75
2022/03/27 18:57:15;;;;;;;19.45;9.57;;;19.00;35.20;;;;;;4948286;28;20063;-76
2022/03/27 18:59:48;;;;;;;17.92;10.10;;;19.00;35.00;;;;;;4948229;28;20050;-76
2022/03/27 19:02:17;;;;;;;21.23;9.65;;;18.90;34.70;;;;;;4949831;28;20200;-75
2022/03/27 19:04:44;;;;;;;18.63;9.20;;;18.80;34.70;;;;;;4948617;28;20554;-75
2022/03/27 19:07:12;;;;;;;19.55;9.25;;;18.70;35.10;;;;;;4950126;28;20063;-74
2022/03/27 19:09:39;;;;;;;21.55;9.60;;;18.70;35.10;;;;;;4948662;28;20102;-75
2022/03/27 19:12:11;;;;;;;15.30;8.98;;;18.70;35.60;;;;;;4948239;28;20117;-74
2022/03/27 19:14:40;;;;;;;18.50;9.45;;;18.70;35.70;;;;;;4948636;28;20066;-75
2022/03/27 19:17:45;;;;;;;18.48;8.68;;;18.70;36.50;;;;;;4948802;28;20546;-74
2022/03/27 19:20:18;;;;;;;17.90;8.80;;;18.60;36.30;;;;;;4941057;28;20055;-75
2022/03/27 19:22:49;;;;;;;22.25;9.77;;;18.50;36.60;;;;;;4948371;29;20070;-75
2022/03/27 19:25:16;;;;;;;24.10;9.60;;;18.50;36.90;;;;;;4947053;28;20058;-75
2022/03/27 19:27:43;;;;;;;18.17;9.57;;;18.50;37.10;;;;;;4949588;28;20043;-76
2022/03/27 19:30:12;;;;;;;18.63;9.77;;;18.50;37.30;;;;;;4948914;28;20118;-74
2022/03/27 19:32:39;;;;;;;20.45;9.18;;;18.50;37.60;;;;;;4947472;28;20047;-74
2022/03/27 19:35:07;;;;;;;22.27;10.05;;;18.40;37.70;;;;;;4949451;28;20059;-75
2022/03/27 19:37:37;;;;;;;22.48;10.13;;;18.40;37.80;;;;;;4949943;28;20570;-75
2022/03/27 19:40:08;;;;;;;22.85;10.32;;;18.30;38.00;;;;;;4946792;28;20054;-74
2022/03/27 19:42:35;;;;;;;;;;;18.30;38.50;;;;;;4949455;28;20051;-74
2022/03/27 19:45:02;;;;;;;31.98;13.70;;;18.30;39.00;;;;;;4952142;28;20300;-75
2022/03/27 19:47:29;;;;;;;22.65;11.85;;;18.30;38.80;;;;;;4950108;28;20122;-74
2022/03/27 19:49:56;;;;;;;23.02;11.98;;;18.30;39.00;;;;;;4952334;28;20142;-74
2022/03/27 19:52:23;;;;;;;23.20;11.70;;;18.20;39.30;;;;;;4951626;28;20137;-74
2022/03/27 19:54:51;;;;;;;23.55;10.60;;;18.20;39.30;;;;;;4950502;28;20059;-76
2022/03/27 19:57:25;;;;;;;23.25;10.70;;;18.10;39.50;;;;;;4950295;28;20492;-74
2022/03/27 19:59:53;;;;;;;24.70;11.50;;;18.10;39.80;;;;;;4953095;28;20053;-75
2022/03/27 20:02:21;;;;;;;21.25;10.45;;;18.10;40.00;;;;;;4952115;28;20106;-74
2022/03/27 20:04:49;;;;;;;26.88;11.65;;;18.00;40.70;;;;;;4950837;28;20138;-74
2022/03/27 20:07:16;;;;;;;19.52;11.25;;;18.00;40.30;;;;;;4952744;28;20118;-74
2022/03/27 20:09:42;;;;;;;24.50;11.27;;;17.90;40.40;;;;;;4953434;28;20047;-74
2022/03/27 20:12:11;;;;;;;28.15;11.80;;;17.90;40.60;;;;;;4952834;28;20885;-74
2022/03/27 20:14:38;;;;;;;19.35;10.82;;;17.90;40.50;;;;;;4950799;28;20078;-75
2022/03/27 20:17:05;;;;;;;23.15;11.35;;;17.80;40.40;;;;;;4951516;28;20071;-74
2022/03/27 20:19:32;;;;;;;32.53;12.00;;;17.70;40.80;;;;;;4950375;28;20055;-74
2022/03/27 20:21:59;;;;;;;20.35;10.82;;;17.70;40.90;;;;;;4951092;28;20142;-74
2022/03/27 20:24:26;;;;;;;25.15;11.43;;;17.60;40.60;;;;;;4953047;28;20130;-74
2022/03/27 20:26:56;;;;;;;31.75;12.10;;;17.60;40.90;;;;;;4949379;28;20098;-74
2022/03/27 20:29:25;;;;;;;21.67;11.25;;;17.50;41.10;;;;;;4952056;28;20047;-74
2022/03/27 20:31:52;;;;;;;26.42;12.32;;;17.50;41.00;;;;;;4950593;28;20146;-76
2022/03/27 20:34:20;;;;;;;28.58;12.20;;;17.40;41.40;;;;;;4951913;28;20077;-74
2022/03/27 20:36:47;;;;;;;23.58;11.98;;;17.40;42.10;;;;;;4949800;28;20082;-74
2022/03/27 20:39:14;;;;;;;23.88;11.82;;;17.40;41.90;;;;;;4951443;28;20991;-74
2022/03/27 20:41:41;;;;;;;24.23;12.00;;;17.40;41.90;;;;;;4949109;28;20502;-74
2022/03/27 20:44:08;;;;;;;25.90;12.35;;;17.40;42.00;;;;;;4950575;28;20559;-75
2022/03/27 20:46:37;;;;;;;30.20;13.75;;;17.30;42.10;;;;;;4952309;28;20051;-75
2022/03/27 20:49:07;;;;;;;27.35;14.18;;;17.30;42.20;;;;;;4951087;28;20573;-73
2022/03/27 20:51:34;;;;;;;28.25;13.75;;;17.30;42.10;;;;;;4951276;28;20527;-74
2022/03/27 20:54:01;;;;;;;24.58;13.43;;;17.30;42.20;;;;;;4950058;28;20125;-74
2022/03/27 20:56:28;;;;;;;32.80;13.25;;;17.30;42.20;;;;;;4951523;28;20061;-74
2022/03/27 20:58:55;;;;;;;30.65;12.95;;;17.30;42.50;;;;;;4951909;28;20052;-76
2022/03/27 21:01:22;;;;;;;27.58;12.95;;;17.20;42.40;;;;;;4951577;28;20051;-73
2022/03/27 21:03:50;;;;;;;31.73;13.88;;;17.20;42.60;;;;;;4948034;28;20126;-74
2022/03/27 21:06:17;;;;;;;27.27;13.05;;;17.20;42.70;;;;;;4951076;28;20090;-75
2022/03/27 21:08:47;;;;;;;29.33;14.35;;;17.20;42.80;;;;;;4951292;28;20047;-75
2022/03/27 21:11:14;;;;;;;31.23;13.60;;;17.10;42.70;;;;;;4951299;28;20065;-74
2022/03/27 21:13:41;;;;;;;31.75;13.65;;;17.10;42.70;;;;;;4952131;28;20134;-74
2022/03/27 21:16:08;;;;;;;29.50;14.10;;;17.10;42.70;;;;;;4950410;28;20070;-74
2022/03/27 21:18:35;;;;;;;30.40;14.25;;;17.00;42.80;;;;;;4951547;28;20138;-74
2022/03/27 21:21:03;;;;;;;27.58;13.35;;;17.00;42.80;;;;;;4940442;28;20511;-74
2022/03/27 21:23:30;;;;;;;22.20;12.23;;;17.00;43.20;;;;;;4950204;28;20047;-73
2022/03/27 21:25:58;;;;;;;25.20;13.70;;;17.00;43.60;;;;;;4948244;29;20051;-75
2022/03/27 21:28:24;;;;;;;27.60;13.73;;;17.00;43.30;;;;;;4951129;28;20055;-73
2022/03/27 21:30:51;;;;;;;29.00;14.15;;;16.90;43.50;;;;;;4948620;28;20078;-74
2022/03/27 21:33:18;;;;;;;30.05;14.95;;;16.90;43.60;;;;;;4948815;28;20488;-74
2022/03/27 21:35:45;;;;;;;32.30;13.68;;;16.90;43.80;;;;;;4950213;28;20565;-74
2022/03/27 21:38:13;;;;;;;28.88;13.25;;;16.90;43.80;;;;;;4949547;28;20151;-75
2022/03/27 21:40:41;;;;;;;36.08;13.43;;;16.80;43.70;;;;;;4951262;28;20142;-74
2022/03/27 21:43:08;;;;;;;34.15;14.30;;;16.80;43.60;;;;;;4950372;28;20047;-74
2022/03/27 21:45:35;;;;;;;39.13;15.30;;;16.70;43.60;;;;;;4948307;28;20047;-75
2022/03/27 21:48:02;;;;;;;33.67;14.05;;;16.60;43.60;;;;;;4950597;28;20142;-74
2022/03/27 21:50:29;;;;;;;33.50;13.50;;;16.50;43.80;;;;;;4949375;28;20067;-74
2022/03/27 21:52:57;;;;;;;31.05;13.50;;;16.50;43.90;;;;;;4951802;28;20114;-74
2022/03/27 21:55:26;;;;;;;29.08;13.23;;;16.50;44.10;;;;;;4949395;28;20051;-74
2022/03/27 21:57:53;;;;;;;25.00;13.82;;;16.50;44.40;;;;;;4949315;28;20174;-75
2022/03/27 22:00:52;;;;;;;29.95;14.23;;;16.50;44.40;;;;;;4950546;28;20145;-75
2022/03/27 22:03:19;;;;;;;29.67;14.95;;;16.50;44.10;;;;;;4947965;28;20561;-74
2022/03/27 22:05:46;;;;;;;29.65;13.88;;;16.40;44.30;;;;;;4948690;28;20051;-74
2022/03/27 22:08:13;;;;;;;31.63;15.48;;;16.40;44.40;;;;;;4950521;28;20051;-74
2022/03/27 22:10:43;;;;;;;30.00;14.40;;;16.40;44.60;;;;;;4950211;28;20047;-75
2022/03/27 22:13:13;;;;;;;28.52;14.15;;;16.30;44.70;;;;;;4949401;28;20685;-74
2022/03/27 22:15:40;;;;;;;28.30;14.98;;;16.30;44.80;;;;;;4950407;28;20054;-73
2022/03/27 22:18:07;;;;;;;29.90;15.25;;;16.30;44.80;;;;;;4948720;28;20047;-75
2022/03/27 22:20:35;;;;;;;27.30;14.63;;;16.20;44.80;;;;;;4949116;28;20053;-73
2022/03/27 22:23:03;;;;;;;34.40;15.27;;;16.20;44.90;;;;;;4949856;29;20051;-73
2022/03/27 22:25:35;;;;;;;34.63;14.93;;;16.10;44.90;;;;;;4949966;28;20062;-73
2022/03/27 22:28:05;;;;;;;32.85;16.67;;;16.10;44.80;;;;;;4948122;28;20069;-73
2022/03/27 22:30:35;;;;;;;30.75;15.82;;;16.10;44.80;;;;;;4948473;28;20057;-74
2022/03/27 22:33:07;;;;;;;34.17;15.73;;;16.00;44.90;;;;;;4949546;28;20050;-74
2022/03/27 22:35:34;;;;;;;32.65;15.77;;;16.10;45.10;;;;;;4949708;28;20517;-74
2022/03/27 22:38:01;;;;;;;29.85;15.68;;;16.10;45.10;;;;;;4949454;28;20496;-76
2022/03/27 22:40:33;;;;;;;42.67;15.85;;;16.00;45.00;;;;;;4949764;28;20173;-73
2022/03/27 22:43:03;;;;;;;29.55;14.38;;;16.00;45.00;;;;;;4948609;28;20047;-73
2022/03/27 22:45:33;;;;;;;31.73;15.75;;;16.00;45.10;;;;;;4949685;28;20047;-75
2022/03/27 22:48:00;;;;;;;29.55;14.98;;;16.00;45.20;;;;;;4948765;28;20133;-75
2022/03/27 22:50:28;;;;;;;31.45;16.05;;;16.00;45.50;;;;;;4949027;28;20051;-74
2022/03/27 22:52:56;;;;;;;28.70;15.55;;;16.00;45.70;;;;;;4950544;28;20062;-74
2022/03/27 22:55:23;;;;;;;35.20;14.82;;;16.00;45.90;;;;;;4947326;28;20055;-73
2022/03/27 22:57:51;;;;;;;33.65;15.60;;;16.00;45.90;;;;;;4948335;28;20051;-74
2022/03/27 23:00:19;;;;;;;28.17;15.02;;;15.90;45.70;;;;;;4948396;28;20065;-74
2022/03/27 23:02:49;;;;;;;29.77;15.10;;;15.90;45.80;;;;;;4946852;28;20103;-74
2022/03/27 23:05:17;;;;;;;29.73;14.90;;;15.90;46.00;;;;;;4948825;28;20055;-75
2022/03/27 23:07:46;;;;;;;33.28;15.55;;;15.90;46.00;;;;;;4947746;28;20062;-74
2022/03/27 23:10:13;;;;;;;29.52;15.73;;;15.90;46.00;;;;;;4948992;28;20050;-74
2022/03/27 23:12:40;;;;;;;31.10;15.65;;;15.90;46.20;;;;;;4949868;28;20083;-73
2022/03/27 23:15:10;;;;;;;29.92;15.70;;;15.80;46.30;;;;;;4950025;28;20048;-74
2022/03/27 23:17:37;;;;;;;31.73;15.75;;;15.90;46.10;;;;;;4947894;28;20432;-75
2022/03/27 23:20:07;;;;;;;31.13;15.60;;;15.80;46.10;;;;;;4953432;28;20065;-74
2022/03/27 23:22:34;;;;;;;30.00;14.82;;;15.80;46.20;;;;;;4952522;28;20058;-74
2022/03/27 23:25:01;;;;;;;27.63;15.20;;;15.80;46.30;;;;;;4951013;28;20047;-75
2022/03/27 23:27:28;;;;;;;27.83;14.68;;;15.80;46.30;;;;;;4951707;28;20050;-75
2022/03/27 23:29:55;;;;;;;27.77;14.60;;;15.80;46.40;;;;;;4953163;28;20127;-74
2022/03/27 23:32:23;;;;;;;30.00;15.52;;;15.80;46.30;;;;;;4953833;28;20051;-74
2022/03/27 23:34:50;;;;;;;28.73;15.00;;;15.70;46.20;;;;;;4952408;28;20727;-74
2022/03/27 23:37:18;;;;;;;29.75;15.38;;;15.70;46.30;;;;;;4951703;28;20051;-75
2022/03/27 23:39:45;;;;;;;37.42;16.77;;;15.70;46.30;;;;;;4952345;28;20414;-73
2022/03/27 23:42:13;;;;;;;33.60;16.10;;;15.60;46.20;;;;;;4950935;28;20055;-77
2022/03/27 23:44:40;;;;;;;25.30;15.45;;;15.50;46.40;;;;;;4952092;28;20409;-74
2022/03/27 23:47:08;;;;;;;31.17;15.30;;;15.50;46.70;;;;;;4954553;28;20546;-75
2022/03/27 23:49:36;;;;;;;33.38;15.90;;;15.40;46.80;;;;;;4952614;28;20078;-75
2022/03/27 23:52:04;;;;;;;35.38;15.90;;;15.40;46.80;;;;;;4951700;28;20126;-75
2022/03/27 23:54:33;;;;;;;33.55;16.42;;;15.30;46.70;;;;;;4951242;28;20557;-74
2022/03/27 23:57:00;;;;;;;31.85;15.40;;;15.30;46.70;;;;;;4951728;28;20137;-76
2022/03/27 23:59:28;;;;;;;29.92;16.60;;;15.30;46.80;;;;;;4951648;28;20118;-76
